Time;durP1;ratioP1;P1;durP2;ratioP2;P2;SDS_P1;SDS_P2;PMS_P1;PMS_P2;Temp;Humidity;BMP_temperature;BMP_pressure;BME280_temperature;BME280_humidity;BME280_pressure;Samples;Min_cycle;Max_cycle;Signal;HPM_P1;HPM_P2
2023/09/25 00:00:20;;;;;;;6.28;1.85;;;;;;;11.90;100.00;100569.78;12209163;19;20118;-81
2023/09/25 00:04:25;;;;;;;3.97;1.90;;;;;;;11.84;100.00;100557.75;12185745;19;20014;-81
2023/09/25 00:08:28;;;;;;;4.30;2.03;;;;;;;11.79;100.00;100558.47;12208408;19;20021;-81
2023/09/25 00:12:30;;;;;;;7.15;2.42;;;;;;;11.77;100.00;100549.56;12209050;19;20018;-81
2023/09/25 00:16:32;;;;;;;3.58;1.98;;;;;;;11.76;100.00;100558.09;12185275;19;20687;-81
2023/09/25 00:20:34;;;;;;;;;;;;;;;11.70;100.00;100559.91;12203486;19;20007;-80
2023/09/25 00:24:36;;;;;;;6.40;1.75;;;;;;;11.67;100.00;100549.34;12192128;19;19918;-81
2023/09/25 00:28:39;;;;;;;5.03;2.20;;;;;;;11.67;100.00;100556.78;12181116;19;20022;-81
2023/09/25 00:32:41;;;;;;;3.40;2.05;;;;;;;11.65;100.00;100551.50;12193822;19;20011;-81
2023/09/25 00:36:44;;;;;;;5.70;2.10;;;;;;;11.62;100.00;100549.19;12180137;19;20014;-82
2023/09/25 00:40:46;;;;;;;3.63;1.80;;;;;;;11.62;100.00;100543.69;12201752;19;20501;-82
2023/09/25 00:44:48;;;;;;;7.13;2.00;;;;;;;11.61;100.00;100544.78;12199601;19;20015;-82
2023/09/25 00:48:52;;;;;;;4.00;2.05;;;;;;;11.61;100.00;100545.59;12184245;19;20070;-81
2023/09/25 00:52:54;;;;;;;3.17;1.50;;;;;;;11.63;100.00;100543.47;12197739;19;20078;-81
2023/09/25 00:56:57;;;;;;;4.53;1.80;;;;;;;11.71;100.00;100539.47;12198762;19;20038;-81
2023/09/25 01:01:00;;;;;;;3.42;2.15;;;;;;;11.76;100.00;100542.38;12171915;19;20271;-81
2023/09/25 01:05:03;;;;;;;4.10;1.80;;;;;;;11.81;100.00;100541.66;12197487;19;20014;-82
2023/09/25 01:09:08;;;;;;;2.78;1.67;;;;;;;11.78;100.00;100529.19;12199856;19;20014;-81
2023/09/25 01:13:11;;;;;;;4.60;1.73;;;;;;;11.76;100.00;100534.09;12177938;19;20447;-81
2023/09/25 01:17:13;;;;;;;2.83;1.60;;;;;;;11.74;100.00;100527.97;12198055;19;20496;-81
2023/09/25 01:21:14;;;;;;;6.30;1.70;;;;;;;11.72;100.00;100521.84;12193778;19;20038;-82
2023/09/25 01:25:19;;;;;;;4.63;1.77;;;;;;;11.71;100.00;100514.63;12176234;19;21893;-81
2023/09/25 01:29:22;;;;;;;3.83;1.65;;;;;;;11.71;100.00;100524.84;12195839;19;20027;-81
2023/09/25 01:33:27;;;;;;;3.70;1.67;;;;;;;11.75;100.00;100526.91;12198477;19;20023;-81
2023/09/25 01:37:29;;;;;;;3.60;1.83;;;;;;;11.74;100.00;100522.44;12177218;19;20011;-82
2023/09/25 01:41:31;;;;;;;5.57;1.63;;;;;;;11.73;100.00;100520.78;12197245;19;20017;-82
2023/09/25 01:45:33;;;;;;;3.60;1.70;;;;;;;11.70;100.00;100515.72;12199039;19;20014;-81
2023/09/25 01:49:35;;;;;;;5.22;1.77;;;;;;;11.67;100.00;100518.97;12175957;19;20006;-81
2023/09/25 01:53:37;;;;;;;5.90;1.83;;;;;;;11.69;100.00;100524.22;12196853;19;20018;-81
2023/09/25 01:57:39;;;;;;;4.43;1.95;;;;;;;11.63;100.00;100507.56;12172801;19;20007;-81
2023/09/25 02:01:42;;;;;;;3.78;1.83;;;;;;;11.56;100.00;100498.56;12194970;19;20011;-81
2023/09/25 02:05:44;;;;;;;3.33;1.67;;;;;;;11.55;100.00;100507.09;12192309;19;20003;-82
2023/09/25 02:09:48;;;;;;;6.75;1.60;;;;;;;11.58;100.00;100507.44;12176895;19;20014;-81
2023/09/25 02:13:49;;;;;;;5.15;1.85;;;;;;;11.54;100.00;100502.63;12165073;19;20014;-82
2023/09/25 02:17:53;;;;;;;5.82;1.83;;;;;;;11.46;100.00;100497.47;12174675;19;20081;-81
2023/09/25 02:21:55;;;;;;;4.25;2.08;;;;;;;11.36;100.00;100496.16;12160980;19;20026;-81
2023/09/25 02:25:56;;;;;;;2.17;1.40;;;;;;;11.30;100.00;100496.25;12185239;19;20018;-82
2023/09/25 02:30:00;;;;;;;5.65;1.83;;;;;;;11.23;100.00;100490.84;12182189;19;21174;-81
2023/09/25 02:34:03;;;;;;;2.70;1.77;;;;;;;11.18;100.00;100487.94;12162593;19;20037;-81
2023/09/25 02:38:06;;;;;;;2.97;1.65;;;;;;;11.13;100.00;100480.41;12184783;19;20078;-81
2023/09/25 02:42:09;;;;;;;7.50;1.92;;;;;;;11.08;100.00;100484.94;12183430;19;20385;-81
2023/09/25 02:46:11;;;;;;;5.60;1.73;;;;;;;11.01;100.00;100485.06;12153369;19;20031;-81
2023/09/25 02:50:13;;;;;;;7.03;1.83;;;;;;;10.93;100.00;100490.91;12190045;19;19998;-81
2023/09/25 02:54:16;;;;;;;4.63;2.00;;;;;;;10.91;100.00;100488.38;12192153;19;20085;-81
2023/09/25 02:58:18;;;;;;;7.83;1.90;;;;;;;10.92;100.00;100492.00;12170727;19;20015;-81
2023/09/25 03:02:21;;;;;;;2.30;1.30;;;;;;;10.87;100.00;100500.97;12188318;19;20011;-81
2023/09/25 03:06:23;;;;;;;8.07;2.35;;;;;;;10.84;100.00;100490.41;12189253;19;20761;-81
2023/09/25 03:10:25;;;;;;;4.28;1.98;;;;;;;10.87;100.00;100489.94;12170248;19;20010;-81
2023/09/25 03:14:27;;;;;;;6.13;2.80;;;;;;;10.89;100.00;100492.47;12190561;19;20049;-81
2023/09/25 03:18:29;;;;;;;2.43;1.50;;;;;;;10.87;100.00;100486.34;12189022;19;20002;-81
2023/09/25 03:22:30;;;;;;;5.07;2.17;;;;;;;10.87;100.00;100483.59;12165767;19;20011;-81
2023/09/25 03:26:32;;;;;;;2.63;1.73;;;;;;;10.88;100.00;100480.56;12199978;19;20013;-81
2023/09/25 03:30:34;;;;;;;3.72;1.90;;;;;;;10.90;100.00;100483.94;12200848;19;20576;-81
2023/09/25 03:34:36;;;;;;;4.10;1.98;;;;;;;10.88;100.00;100483.31;12177027;19;20037;-81
2023/09/25 03:38:38;;;;;;;3.95;2.00;;;;;;;10.88;100.00;100480.56;12198039;19;20030;-81
2023/09/25 03:42:41;;;;;;;5.47;1.88;;;;;;;10.89;100.00;100481.44;12180168;19;20018;-82
2023/09/25 03:46:43;;;;;;;5.53;2.00;;;;;;;10.91;100.00;100474.59;12198713;19;20032;-81
2023/09/25 03:50:46;;;;;;;3.45;1.65;;;;;;;10.92;100.00;100481.81;12201580;19;20003;-81
2023/09/25 03:54:48;;;;;;;5.50;2.10;;;;;;;10.93;100.00;100483.47;12179860;19;20023;-82
2023/09/25 03:58:50;;;;;;;3.87;1.60;;;;;;;10.93;100.00;100482.63;12200912;19;20512;-82
2023/09/25 04:02:53;;;;;;;4.95;2.00;;;;;;;10.94;100.00;100481.56;12199448;19;20078;-82
2023/09/25 04:06:54;;;;;;;8.13;2.17;;;;;;;10.94;100.00;100473.28;12178677;19;20565;-82
2023/09/25 04:10:56;;;;;;;3.17;1.45;;;;;;;10.91;100.00;100482.84;12201351;19;20064;-82
2023/09/25 04:14:58;;;;;;;2.35;1.60;;;;;;;10.92;100.00;100481.81;12200686;19;20019;-82
2023/09/25 04:19:04;;;;;;;4.88;1.80;;;;;;;10.91;100.00;100480.09;12179125;19;20130;-81
2023/09/25 04:23:06;;;;;;;4.47;2.25;;;;;;;10.88;100.00;100482.50;12197300;19;20018;-82
2023/09/25 04:27:09;;;;;;;5.25;1.95;;;;;;;10.85;100.00;100480.22;12206649;19;20014;-82
2023/09/25 04:31:12;;;;;;;2.30;1.48;;;;;;;10.83;100.00;100480.47;12174032;19;20098;-82
2023/09/25 04:35:15;;;;;;;2.47;1.27;;;;;;;10.84;100.00;100489.56;12197767;19;20011;-82
2023/09/25 04:39:17;;;;;;;3.70;1.70;;;;;;;10.83;100.00;100487.91;12200180;19;20019;-82
2023/09/25 04:43:19;;;;;;;4.60;1.95;;;;;;;10.82;100.00;100478.75;12180812;19;20010;-81
2023/09/25 04:47:21;;;;;;;4.50;1.75;;;;;;;10.81;100.00;100481.78;12202596;19;20002;-81
2023/09/25 04:51:23;;;;;;;3.03;1.60;;;;;;;10.79;100.00;100490.25;12204868;19;20649;-82
2023/09/25 04:55:25;;;;;;;3.08;1.70;;;;;;;10.78;100.00;100488.59;12175802;19;20010;-82
2023/09/25 04:59:27;;;;;;;3.80;1.67;;;;;;;10.80;100.00;100483.69;12198014;19;20006;-82
2023/09/25 05:03:29;;;;;;;2.90;1.83;;;;;;;10.79;100.00;100492.19;12199116;19;20362;-81
2023/09/25 05:07:31;;;;;;;4.45;1.92;;;;;;;10.80;100.00;100496.63;12184439;19;20006;-81
2023/09/25 05:11:33;;;;;;;2.00;1.20;;;;;;;10.81;100.00;100495.56;12198692;19;20046;-82
2023/09/25 05:15:36;;;;;;;2.55;1.58;;;;;;;10.81;100.00;100501.91;12200493;19;20401;-81
2023/09/25 05:19:38;;;;;;;3.13;1.80;;;;;;;10.83;100.00;100498.94;12181265;19;20506;-82
2023/09/25 05:23:40;;;;;;;4.00;1.50;;;;;;;10.83;100.00;100501.69;12195985;19;20014;-81
2023/09/25 05:27:49;;;;;;;2.83;1.48;;;;;;;10.83;100.00;100505.28;12173484;19;20075;-82
2023/09/25 05:31:52;;;;;;;6.63;1.85;;;;;;;10.85;100.00;100503.09;12198239;19;20019;-82
2023/09/25 05:35:54;;;;;;;3.50;1.75;;;;;;;11.03;100.00;100509.63;12203581;19;20078;-84
2023/09/25 05:39:59;;;;;;;3.05;1.80;;;;;;;11.10;100.00;100513.16;12177439;19;20007;-83
2023/09/25 05:44:01;;;;;;;4.15;1.58;;;;;;;11.15;100.00;100510.50;12198500;19;20014;-83
2023/09/25 05:48:04;;;;;;;;;;;;;;;11.18;100.00;100519.16;12151353;19;20007;-82
2023/09/25 05:52:06;;;;;;;2.60;1.63;;;;;;;11.23;100.00;100515.69;12178111;19;19932;-84
2023/09/25 05:56:09;;;;;;;4.55;1.70;;;;;;;11.25;100.00;100524.56;12194888;19;20002;-83
2023/09/25 06:00:12;;;;;;;3.47;1.80;;;;;;;11.32;100.00;100527.22;12199519;19;20014;-82
2023/09/25 06:04:18;;;;;;;4.00;1.50;;;;;;;11.39;100.00;100526.03;12175431;19;20074;-83
2023/09/25 06:08:20;;;;;;;1.80;1.33;;;;;;;11.48;100.00;100522.91;12197620;19;20019;-83
2023/09/25 06:12:22;;;;;;;4.55;1.50;;;;;;;11.56;100.00;100519.78;12197818;19;20640;-83
2023/09/25 06:16:24;;;;;;;5.07;1.70;;;;;;;11.68;100.00;100523.41;12172238;19;20017;-83
2023/09/25 06:20:28;;;;;;;4.28;2.10;;;;;;;11.79;100.00;100518.97;12197171;19;20332;-83
2023/09/25 06:24:34;;;;;;;4.25;2.00;;;;;;;11.83;100.00;100521.00;12193254;19;20031;-83
2023/09/25 06:28:37;;;;;;;2.42;1.40;;;;;;;11.86;100.00;100523.31;12179295;19;20006;-84
2023/09/25 06:32:39;;;;;;;4.70;1.60;;;;;;;11.90;100.00;100533.88;12196310;19;20018;-83
2023/09/25 06:36:41;;;;;;;4.03;1.45;;;;;;;11.92;100.00;100540.84;12199529;19;20017;-83
2023/09/25 06:40:44;;;;;;;4.97;1.67;;;;;;;11.94;100.00;100543.38;12172993;19;20007;-83
2023/09/25 06:44:47;;;;;;;3.72;1.90;;;;;;;11.99;100.00;100547.09;12195260;19;20006;-83
2023/09/25 06:48:50;;;;;;;3.00;1.60;;;;;;;12.04;100.00;100538.06;12172934;19;20086;-83
2023/09/25 06:52:53;;;;;;;2.97;1.90;;;;;;;12.14;100.00;100537.47;12195734;19;20492;-83
2023/09/25 06:56:55;;;;;;;3.78;1.75;;;;;;;12.21;100.00;100544.53;12197145;19;20014;-83
2023/09/25 07:00:58;;;;;;;2.95;2.00;;;;;;;12.33;100.00;100536.22;12186645;19;20021;-83
2023/09/25 07:05:00;;;;;;;5.60;1.63;;;;;;;12.47;100.00;100545.09;12211766;19;20057;-82
2023/09/25 07:09:03;;;;;;;6.18;1.48;;;;;;;12.64;100.00;100548.78;12208166;19;20006;-82
2023/09/25 07:13:05;;;;;;;3.53;1.50;;;;;;;12.82;100.00;100544.09;12186875;19;20006;-83
2023/09/25 07:17:07;;;;;;;4.75;1.80;;;;;;;12.97;100.00;100542.50;12195380;19;20401;-83
2023/09/25 07:21:09;;;;;;;8.25;1.67;;;;;;;13.14;100.00;100545.28;12177980;19;20007;-83
2023/09/25 07:25:11;;;;;;;3.33;1.87;;;;;;;13.24;100.00;100547.41;12182495;19;20034;-83
2023/09/25 07:29:12;;;;;;;8.20;1.48;;;;;;;13.42;100.00;100551.91;12205174;19;20003;-83
2023/09/25 07:33:36;;;;;;;4.28;1.80;;;;;;;13.71;100.00;100549.03;12207028;19;20010;-83
2023/09/25 07:37:41;;;;;;;6.45;1.73;;;;;;;13.95;100.00;100544.13;12183419;19;20003;-82
2023/09/25 07:41:43;;;;;;;14.35;1.98;;;;;;;14.16;100.00;100546.13;12203792;19;20019;-82
2023/09/25 07:45:52;;;;;;;4.07;1.60;;;;;;;14.47;100.00;100558.47;12183402;19;20014;-82
2023/09/25 07:49:54;;;;;;;5.03;1.80;;;;;;;14.77;100.00;100555.25;12214863;19;20404;-83
2023/09/25 07:53:58;;;;;;;4.00;1.50;;;;;;;15.13;100.00;100557.59;12207120;19;20070;-83
2023/09/25 07:58:03;;;;;;;4.22;1.70;;;;;;;15.43;100.00;100557.88;12190696;19;20018;-83
2023/09/25 08:02:07;;;;;;;3.55;1.63;;;;;;;15.76;100.00;100561.50;12209836;19;20010;-82
2023/09/25 08:06:11;;;;;;;1.77;1.30;;;;;;;16.01;100.00;100558.09;12210204;19;20023;-82
2023/09/25 08:10:13;;;;;;;4.68;1.95;;;;;;;16.26;100.00;100562.13;12183612;19;20007;-81
2023/09/25 08:14:15;;;;;;;4.47;1.67;;;;;;;16.53;100.00;100565.59;12207422;19;20011;-82
2023/09/25 08:18:17;;;;;;;5.13;1.80;;;;;;;16.69;95.17;100574.88;12203159;19;20123;-82
2023/09/25 08:22:20;;;;;;;;;;;;;;;16.85;94.79;100581.38;12180536;19;20078;-83
2023/09/25 08:26:23;;;;;;;3.33;1.73;;;;;;;17.07;96.64;100575.56;12205556;19;19938;-83
2023/09/25 08:30:29;;;;;;;2.97;1.70;;;;;;;17.14;92.52;100576.16;12203373;19;20007;-83
2023/09/25 08:34:30;;;;;;;3.50;1.58;;;;;;;17.31;90.17;100582.34;12177537;19;20090;-81
2023/09/25 08:38:34;;;;;;;3.70;1.70;;;;;;;17.51;87.70;100575.94;12203541;19;20375;-82
2023/09/25 08:42:37;;;;;;;4.72;2.00;;;;;;;17.63;83.49;100567.31;12200661;19;20002;-82
2023/09/25 08:46:39;;;;;;;3.67;1.35;;;;;;;17.77;83.32;100562.88;12179025;19;20002;-81
2023/09/25 08:50:41;;;;;;;4.07;1.75;;;;;;;18.02;84.45;100575.13;12204085;19;20006;-82
2023/09/25 08:54:43;;;;;;;6.33;2.13;;;;;;;18.10;82.28;100566.19;12202522;19;20010;-82
2023/09/25 08:58:50;;;;;;;4.28;1.50;;;;;;;18.29;81.42;100572.00;12180387;19;20010;-84
2023/09/25 09:02:52;;;;;;;3.65;1.70;;;;;;;18.49;81.36;100557.16;12201928;19;20015;-83
2023/09/25 09:06:56;;;;;;;3.83;1.80;;;;;;;18.63;78.12;100554.59;12193903;19;20034;-83
2023/09/25 09:11:08;;;;;;;3.17;1.80;;;;;;;18.73;78.19;100556.50;12181123;19;20082;-83
2023/09/25 09:15:27;;;;;;;4.45;1.65;;;;;;;19.06;78.68;100558.59;12194682;19;20034;-81
2023/09/25 09:19:36;;;;;;;2.17;1.50;;;;;;;19.30;74.78;100555.94;12182145;19;20006;-82
2023/09/25 09:23:40;;;;;;;2.50;1.50;;;;;;;19.39;72.65;100553.34;12195217;19;20002;-81
2023/09/25 09:27:45;;;;;;;3.40;1.70;;;;;;;19.60;71.88;100542.84;12205243;19;20135;-82
2023/09/25 09:31:52;;;;;;;2.80;1.67;;;;;;;19.73;69.62;100546.97;12175629;19;20010;-82
2023/09/25 09:35:54;;;;;;;3.88;1.80;;;;;;;19.74;70.95;100546.66;12196514;19;20017;-84
2023/09/25 09:39:59;;;;;;;4.15;1.98;;;;;;;19.92;71.05;100545.09;12200762;19;20010;-84
2023/09/25 09:44:01;;;;;;;2.88;1.85;;;;;;;20.12;70.24;100534.84;12174976;19;20007;-84
2023/09/25 09:48:06;;;;;;;2.37;1.50;;;;;;;20.36;66.96;100535.69;12196672;19;20006;-85
2023/09/25 09:52:10;;;;;;;4.22;1.92;;;;;;;20.57;67.26;100544.72;12177674;19;20287;-82
2023/09/25 09:56:18;;;;;;;3.67;1.60;;;;;;;20.82;64.49;100534.31;12193371;19;20014;-81
2023/09/25 10:00:20;;;;;;;2.08;1.40;;;;;;;20.88;60.59;100539.56;12193021;19;20019;-83
2023/09/25 10:04:22;;;;;;;3.77;1.73;;;;;;;21.03;62.85;100523.63;12176851;19;20015;-82
2023/09/25 10:08:25;;;;;;;3.20;1.95;;;;;;;21.19;63.01;100527.91;12198191;19;20248;-82
2023/09/25 10:12:37;;;;;;;4.00;1.57;;;;;;;21.29;61.33;100530.53;12195886;19;20429;-81
2023/09/25 10:17:00;;;;;;;3.20;1.70;;;;;;;21.41;61.38;100523.66;12173518;19;20121;-82
2023/09/25 10:21:11;;;;;;;3.00;1.60;;;;;;;21.52;60.38;100522.38;12190121;19;20045;-82
2023/09/25 10:25:14;;;;;;;2.50;1.52;;;;;;;21.59;59.59;100505.97;12175761;19;20015;-83
2023/09/25 10:29:18;;;;;;;3.80;1.98;;;;;;;21.78;61.51;100503.94;12203516;19;20033;-81
2023/09/25 10:33:22;;;;;;;3.15;2.03;;;;;;;21.92;60.81;100504.00;12198155;19;20019;-82
2023/09/25 10:37:24;;;;;;;3.73;1.40;;;;;;;22.03;59.66;100496.19;12188074;19;20023;-83
2023/09/25 10:41:26;;;;;;;4.83;1.73;;;;;;;22.16;57.67;100500.16;12209516;19;20014;-83
2023/09/25 10:45:28;;;;;;;4.77;1.83;;;;;;;22.12;56.84;100497.13;12226534;19;20003;-83
2023/09/25 10:49:29;;;;;;;4.13;1.60;;;;;;;22.18;54.24;100493.13;12231940;19;20025;-82
2023/09/25 10:53:32;;;;;;;3.00;1.70;;;;;;;22.32;56.28;100487.53;12230334;19;20288;-83
2023/09/25 10:57:36;;;;;;;2.35;1.55;;;;;;;22.53;55.68;100476.69;12194446;19;20026;-83
2023/09/25 11:01:38;;;;;;;;;;;;;;;22.74;55.20;100469.47;12203833;19;20022;-82
2023/09/25 11:05:40;;;;;;;2.33;1.60;;;;;;;22.96;55.21;100477.16;12205212;19;19907;-81
2023/09/25 11:09:42;;;;;;;3.33;1.60;;;;;;;23.12;52.72;100480.44;12183777;19;20022;-82
2023/09/25 11:13:44;;;;;;;3.77;1.40;;;;;;;23.26;51.39;100474.75;12206458;19;20030;-82
2023/09/25 11:17:47;;;;;;;2.80;1.50;;;;;;;23.29;51.34;100459.22;12186667;19;20102;-82
2023/09/25 11:21:55;;;;;;;3.50;1.85;;;;;;;23.39;50.80;100459.78;12206334;19;20014;-83
2023/09/25 11:25:57;;;;;;;3.70;1.85;;;;;;;23.44;50.66;100461.66;12208137;19;20043;-84
2023/09/25 11:30:11;;;;;;;4.70;2.50;;;;;;;23.62;48.91;100457.81;12184560;19;20030;-84
2023/09/25 11:34:14;;;;;;;2.80;1.58;;;;;;;23.88;49.94;100459.94;12205149;19;20062;-84
2023/09/25 11:38:20;;;;;;;3.33;1.55;;;;;;;24.23;48.68;100451.66;12208673;19;20007;-84
2023/09/25 11:42:23;;;;;;;3.75;2.00;;;;;;;24.76;45.90;100448.66;12187392;19;20460;-82
2023/09/25 11:46:25;;;;;;;3.55;1.80;;;;;;;25.43;44.83;100449.31;12200476;19;20011;-83
2023/09/25 11:50:27;;;;;;;2.47;1.50;;;;;;;26.05;42.81;100446.03;12210001;19;20019;-84
2023/09/25 11:54:29;;;;;;;3.85;1.73;;;;;;;26.62;41.78;100444.75;12184733;19;20021;-85
2023/09/25 11:58:31;;;;;;;3.88;1.58;;;;;;;27.00;41.44;100450.28;12205822;19;20007;-85
2023/09/25 12:02:34;;;;;;;3.13;1.42;;;;;;;27.25;40.00;100448.47;12194464;19;20457;-84
2023/09/25 12:06:37;;;;;;;3.63;1.60;;;;;;;27.21;39.20;100443.81;12175342;19;20011;-85
2023/09/25 12:10:39;;;;;;;4.25;1.60;;;;;;;27.38;39.36;100437.19;12204164;19;19998;-85
2023/09/25 12:14:41;;;;;;;;;;;;;;;27.62;40.50;100423.09;12200233;19;20090;-85
2023/09/25 12:18:43;;;;;;;4.50;1.90;;;;;;;27.94;39.50;100427.09;12170183;19;19914;-85
2023/09/25 12:22:46;;;;;;;2.83;1.60;;;;;;;28.41;38.68;100420.16;12196617;19;20006;-85
2023/09/25 12:26:48;;;;;;;2.33;1.60;;;;;;;28.88;36.97;100411.06;12181902;19;20029;-85
2023/09/25 12:30:50;;;;;;;;;;;;;;;29.09;37.88;100416.59;12200312;19;20010;-86
2023/09/25 12:34:51;;;;;;;3.53;1.85;;;;;;;29.37;36.16;100413.75;12198245;19;19907;-85
2023/09/25 12:38:53;;;;;;;;;;;;;;;29.03;35.82;100407.53;12180414;19;20007;-85
2023/09/25 12:42:55;;;;;;;3.10;1.70;;;;;;;29.19;35.12;100403.91;12201618;19;19903;-85
2023/09/25 12:46:57;;;;;;;;;;;;;;;29.35;36.87;100407.59;12199885;19;20137;-85
2023/09/25 12:50:59;;;;;;;;;;;;;;;29.68;36.81;100393.13;12177985;19;19962;-85
2023/09/25 12:55:03;;;;;;;;;;;;;;;30.20;35.28;100391.22;12200324;19;19913;-85
2023/09/25 12:59:05;;;;;;;2.60;1.88;;;;;;;30.82;32.28;100389.44;12199379;19;19954;-85
2023/09/25 13:03:08;;;;;;;4.53;1.55;;;;;;;29.85;32.53;100391.13;12179352;19;20478;-86
2023/09/25 13:07:11;;;;;;;4.30;1.88;;;;;;;28.70;34.01;100396.34;12198342;19;20442;-84
2023/09/25 13:11:13;;;;;;;3.55;1.80;;;;;;;27.68;34.69;100392.56;12202529;19;20480;-85
2023/09/25 13:15:19;;;;;;;2.53;1.60;;;;;;;26.92;35.18;100390.97;12174575;19;20009;-85
2023/09/25 13:19:24;;;;;;;3.05;1.70;;;;;;;26.46;35.99;100389.97;12200530;19;20010;-84
2023/09/25 13:23:26;;;;;;;3.03;1.52;;;;;;;25.90;36.93;100392.94;12196500;19;20002;-85
2023/09/25 13:27:34;;;;;;;3.03;1.73;;;;;;;25.31;37.28;100387.13;12179672;19;20023;-84
2023/09/25 13:31:37;;;;;;;2.80;1.60;;;;;;;25.10;37.97;100387.78;12198373;19;20357;-83
2023/09/25 13:35:40;;;;;;;2.83;1.33;;;;;;;24.86;37.69;100393.94;12195274;19;20074;-84
2023/09/25 13:39:44;;;;;;;2.40;1.38;;;;;;;24.70;38.24;100385.16;12175383;19;20106;-83
2023/09/25 13:43:47;;;;;;;3.65;1.58;;;;;;;24.50;38.16;100394.25;12197532;19;19999;-83
2023/09/25 13:47:50;;;;;;;2.33;1.40;;;;;;;24.26;38.38;100386.22;12173130;19;20027;-84
2023/09/25 13:51:57;;;;;;;3.72;1.95;;;;;;;24.13;39.11;100392.84;12205427;19;20002;-82
2023/09/25 13:55:59;;;;;;;3.92;1.63;;;;;;;24.02;38.99;100393.13;12200840;19;20757;-83
2023/09/25 14:00:02;;;;;;;3.38;1.55;;;;;;;23.89;38.97;100385.63;12174517;19;20012;-83
2023/09/25 14:04:11;;;;;;;1.50;1.15;;;;;;;23.74;39.12;100383.25;12195449;19;20017;-82
2023/09/25 14:08:17;;;;;;;2.97;1.23;;;;;;;23.71;39.04;100383.88;12194596;19;20086;-83
2023/09/25 14:12:20;;;;;;;3.28;1.42;;;;;;;23.69;38.85;100384.19;12172523;19;20007;-83
2023/09/25 14:16:22;;;;;;;2.63;1.52;;;;;;;23.55;38.59;100384.28;12190390;19;20014;-83
2023/09/25 14:20:24;;;;;;;2.92;1.50;;;;;;;23.49;39.13;100385.56;12191159;19;20003;-81
2023/09/25 14:24:26;;;;;;;3.15;1.35;;;;;;;23.42;38.61;100388.03;12166575;19;20058;-84
2023/09/25 14:28:31;;;;;;;5.72;1.88;;;;;;;23.44;38.63;100391.34;12191747;19;20003;-82
2023/09/25 14:32:33;;;;;;;;;;;;;;;23.45;39.35;100384.56;12189079;19;20007;-83
2023/09/25 14:36:37;;;;;;;;;;;;;;;23.68;39.37;100388.16;12164986;19;19907;-83
2023/09/25 14:40:39;;;;;;;;;;;;;;;24.00;38.71;100386.97;12192617;19;19911;-84
2023/09/25 14:44:41;;;;;;;;;;;;;;;24.26;38.99;100386.22;12190991;19;19914;-83
2023/09/25 14:48:46;;;;;;;;;;;;;;;24.36;39.17;100385.91;12189530;19;20382;-83
2023/09/25 14:52:49;;;;;;;;;;;;;;;24.38;39.67;100382.78;12235154;19;19922;-83
2023/09/25 14:56:53;;;;;;;;;;;;;;;24.29;39.73;100382.75;12212253;19;19947;-82
2023/09/25 15:00:56;;;;;;;;;;;;;;;24.15;40.56;100379.25;12231397;19;19918;-83
2023/09/25 15:04:59;;;;;;;;;;;;;;;24.06;40.48;100382.03;12233125;19;19914;-83
2023/09/25 15:09:00;;;;;;;;;;;;;;;24.00;40.42;100384.16;12212221;19;19931;-82
2023/09/25 15:13:03;;;;;;;;;;;;;;;23.95;41.87;100383.50;12233439;19;19958;-82
2023/09/25 15:17:06;;;;;;;;;;;;;;;23.95;42.26;100375.06;12232066;19;20404;-83
2023/09/25 15:21:10;;;;;;;;;;;;;;;23.91;41.28;100366.41;12201964;19;19919;-82
2023/09/25 15:25:12;;;;;;;;;;;;;;;23.92;40.84;100359.66;12214030;19;20593;-81
2023/09/25 15:29:17;;;;;;;;;;;;;;;23.87;40.59;100365.41;12214929;19;19915;-83
2023/09/25 15:33:19;;;;;;;;;;;;;;;23.73;41.12;100370.31;12182224;19;19921;-83
2023/09/25 15:37:27;;;;;;;;;;;;;;;23.55;41.71;100361.78;12204315;19;19918;-82
2023/09/25 15:41:29;;;;;;;;;;;;;;;23.36;42.93;100370.44;12205790;19;19914;-82
2023/09/25 15:45:33;;;;;;;;;;;;;;;23.15;43.85;100363.72;12182981;19;19943;-82
2023/09/25 15:49:35;;;;;;;;;;;;;;;22.93;43.55;100370.97;12206703;19;19910;-82
2023/09/25 15:53:37;;;;;;;;;;;;;;;22.78;46.56;100368.50;12208598;19;19914;-82
2023/09/25 15:57:38;;;;;;;;;;;;;;;22.58;46.63;100371.84;12186026;19;19919;-83
2023/09/25 16:01:41;;;;;;;;;;;;;;;22.43;47.99;100378.63;12202886;19;19914;-82
2023/09/25 16:05:43;;;;;;;;;;;;;;;22.27;49.96;100367.72;12188657;19;19918;-82
2023/09/25 16:09:47;;;;;;;;;;;;;;;22.05;50.69;100371.28;12205711;19;19921;-82
2023/09/25 16:13:50;;;;;;;;;;;;;;;21.85;51.94;100371.69;12205912;19;20653;-82
2023/09/25 16:17:53;;;;;;;;;;;;;;;21.61;53.25;100377.50;12181966;19;19988;-83
2023/09/25 16:21:56;;;;;;;;;;;;;;;21.35;55.03;100374.31;12205248;19;19910;-82
2023/09/25 16:25:58;;;;;;;;;;;;;;;21.11;56.59;100382.84;12225876;19;19970;-82
2023/09/25 16:29:59;;;;;;;;;;;;;;;20.86;57.88;100386.94;12204080;19;19914;-82
2023/09/25 16:34:01;;;;;;;;;;;;;;;20.61;59.60;100393.72;12221309;19;19931;-83
2023/09/25 16:38:03;;;;;;;;;;;;;;;20.38;61.09;100387.88;12210098;19;19946;-83
2023/09/25 16:42:09;;;;;;;;;;;;;;;20.22;61.54;100392.84;12181997;19;19907;-82
2023/09/25 16:46:11;;;;;;;;;;;;;;;20.07;62.70;100392.22;12202372;19;19918;-83
2023/09/25 16:50:13;;;;;;;;;;;;;;;19.89;63.65;100393.84;12201817;19;20275;-83
2023/09/25 16:54:16;;;;;;;;;;;;;;;19.69;63.81;100400.47;12178183;19;19928;-83
2023/09/25 16:58:22;;;;;;;;;;;;;;;19.50;65.12;100406.78;12203832;19;19938;-82
2023/09/25 17:02:24;;;;;;;;;;;;;;;19.32;66.06;100402.78;12201228;19;19919;-83
2023/09/25 17:06:27;;;;;;;;;;;;;;;19.18;67.16;100404.59;12177584;19;21559;-83
2023/09/25 17:10:30;;;;;;;;;;;;;;;19.00;67.77;100396.91;12198091;19;19938;-82
2023/09/25 17:14:34;;;;;;;;;;;;;;;18.82;68.59;100395.66;12197786;19;19910;-83
2023/09/25 17:18:35;;;;;;;;;;;;;;;18.62;69.25;100389.09;12179509;19;19985;-83
2023/09/25 17:22:43;;;;;;;;;;;;;;;18.43;70.41;100397.28;12201652;19;19914;-82
2023/09/25 17:26:45;;;;;;;;;;;;;;;18.24;71.79;100399.06;12177860;19;19911;-83
2023/09/25 17:30:47;;;;;;;;;;;;;;;18.08;72.95;100395.50;12193922;19;19915;-83
2023/09/25 17:35:09;;;;;;;;;;;;;;;17.90;74.23;100394.19;12199538;19;19932;-83
2023/09/25 17:39:11;;;;;;;;;;;;;;;17.76;75.74;100388.38;12174500;19;19925;-83
2023/09/25 17:43:17;;;;;;;;;;;;;;;17.64;77.09;100393.41;12192224;19;19914;-82
2023/09/25 17:47:20;;;;;;;;;;;;;;;17.49;78.90;100397.06;12194491;19;19914;-83
2023/09/25 17:51:22;;;;;;;;;;;;;;;17.38;79.45;100398.19;12172694;19;19932;-82
2023/09/25 17:55:24;;;;;;;;;;;;;;;17.29;81.09;100399.88;12198044;19;19927;-82
2023/09/25 17:59:26;;;;;;;;;;;;;;;17.21;82.48;100408.78;12196534;19;19998;-82
2023/09/25 18:03:28;;;;;;;;;;;;;;;17.09;83.60;100409.06;12165565;19;19911;-82
2023/09/25 18:07:31;;;;;;;;;;;;;;;16.99;84.13;100420.22;12191662;19;19915;-82
2023/09/25 18:11:33;;;;;;;;;;;;;;;16.91;85.09;100420.78;12188156;19;19918;-82
2023/09/25 18:15:37;;;;;;;;;;;;;;;16.84;85.76;100416.31;12171198;19;19911;-82
2023/09/25 18:19:39;;;;;;;;;;;;;;;16.78;85.70;100425.78;12193685;19;19938;-82
2023/09/25 18:23:41;;;;;;;;;;;;;;;16.74;86.96;100430.16;12197734;19;19907;-81
2023/09/25 18:27:45;;;;;;;;;;;;;;;16.67;87.51;100432.38;12173922;19;20281;-82
2023/09/25 18:31:52;;;;;;;;;;;;;;;16.60;88.56;100427.09;12200912;19;20219;-81
2023/09/25 18:35:57;;;;;;;;;;;;;;;16.57;88.67;100427.66;12172226;19;19946;-81
2023/09/25 18:39:59;;;;;;;;;;;;;;;16.53;89.38;100434.84;12192118;19;20250;-82
2023/09/25 18:44:02;;;;;;;;;;;;;;;16.47;90.32;100438.72;12189949;19;19914;-81
2023/09/25 18:48:05;;;;;;;;;;;;;;;16.41;91.27;100443.44;12173593;19;19918;-81
2023/09/25 18:52:07;;;;;;;;;;;;;;;16.36;91.63;100446.22;12190579;19;19920;-82
2023/09/25 18:56:09;;;;;;;;;;;;;;;16.34;91.73;100444.81;12201708;19;19910;-82
2023/09/25 19:00:13;;;;;;;;;;;;;;;16.31;92.47;100450.94;12180233;19;19907;-81